sensor_id;sensor_type;location;lat;lon;timestamp;P1;durP1;ratioP1;P2;durP2;ratioP2
2656;SDS011;1338;48.176;11.792;2022-09-09T00:00:59;3.37;;;3.07;;
2656;SDS011;1338;48.176;11.792;2022-09-09T00:03:37;3.77;;;3.37;;
2656;SDS011;1338;48.176;11.792;2022-09-09T00:06:16;3.87;;;3.57;;
2656;SDS011;1338;48.176;11.792;2022-09-09T00:08:53;3.70;;;3.50;;
2656;SDS011;1338;48.176;11.792;2022-09-09T00:11:30;3.43;;;3.23;;
2656;SDS011;1338;48.176;11.792;2022-09-09T00:14:08;3.90;;;3.60;;
2656;SDS011;1338;48.176;11.792;2022-09-09T00:16:41;3.33;;;3.13;;
2656;SDS011;1338;48.176;11.792;2022-09-09T00:19:15;3.47;;;3.00;;
2656;SDS011;1338;48.176;11.792;2022-09-09T00:21:52;4.23;;;3.20;;
2656;SDS011;1338;48.176;11.792;2022-09-09T00:24:29;4.73;;;3.87;;
2656;SDS011;1338;48.176;11.792;2022-09-09T00:27:06;6.57;;;3.50;;
2656;SDS011;1338;48.176;11.792;2022-09-09T00:29:42;3.43;;;3.13;;
2656;SDS011;1338;48.176;11.792;2022-09-09T00:32:14;3.80;;;3.50;;
2656;SDS011;1338;48.176;11.792;2022-09-09T00:34:47;3.13;;;2.93;;
2656;SDS011;1338;48.176;11.792;2022-09-09T00:37:18;3.77;;;3.47;;
2656;SDS011;1338;48.176;11.792;2022-09-09T00:39:48;6.60;;;3.40;;
2656;SDS011;1338;48.176;11.792;2022-09-09T00:42:23;3.00;;;2.80;;
2656;SDS011;1338;48.176;11.792;2022-09-09T00:44:56;3.63;;;3.33;;
2656;SDS011;1338;48.176;11.792;2022-09-09T00:47:36;3.93;;;3.20;;
2656;SDS011;1338;48.176;11.792;2022-09-09T00:50:12;3.53;;;3.13;;
2656;SDS011;1338;48.176;11.792;2022-09-09T00:53:05;3.27;;;3.03;;
2656;SDS011;1338;48.176;11.792;2022-09-09T00:55:52;3.30;;;3.10;;
2656;SDS011;1338;48.176;11.792;2022-09-09T00:58:25;2.90;;;2.70;;
2656;SDS011;1338;48.176;11.792;2022-09-09T01:00:55;3.10;;;2.90;;
2656;SDS011;1338;48.176;11.792;2022-09-09T01:03:32;2.97;;;2.77;;
2656;SDS011;1338;48.176;11.792;2022-09-09T01:06:11;3.13;;;2.93;;
2656;SDS011;1338;48.176;11.792;2022-09-09T01:11:52;3.57;;;3.27;;
2656;SDS011;1338;48.176;11.792;2022-09-09T01:14:34;3.60;;;3.30;;
2656;SDS011;1338;48.176;11.792;2022-09-09T01:17:10;3.37;;;3.10;;
2656;SDS011;1338;48.176;11.792;2022-09-09T01:19:52;6.27;;;3.27;;
2656;SDS011;1338;48.176;11.792;2022-09-09T01:22:34;2.80;;;2.60;;
2656;SDS011;1338;48.176;11.792;2022-09-09T01:28:08;3.27;;;3.07;;
2656;SDS011;1338;48.176;11.792;2022-09-09T01:30:40;3.03;;;2.83;;
2656;SDS011;1338;48.176;11.792;2022-09-09T01:33:13;3.80;;;2.93;;
2656;SDS011;1338;48.176;11.792;2022-09-09T01:35:44;4.57;;;3.10;;
2656;SDS011;1338;48.176;11.792;2022-09-09T01:38:18;3.30;;;3.00;;
2656;SDS011;1338;48.176;11.792;2022-09-09T01:40:49;3.10;;;2.80;;
2656;SDS011;1338;48.176;11.792;2022-09-09T01:43:22;3.40;;;3.10;;
2656;SDS011;1338;48.176;11.792;2022-09-09T01:45:53;3.97;;;3.50;;
2656;SDS011;1338;48.176;11.792;2022-09-09T01:48:23;3.40;;;3.20;;
2656;SDS011;1338;48.176;11.792;2022-09-09T01:51:01;3.67;;;3.10;;
2656;SDS011;1338;48.176;11.792;2022-09-09T01:53:29;3.63;;;3.33;;
2656;SDS011;1338;48.176;11.792;2022-09-09T01:56:00;3.10;;;2.90;;
2656;SDS011;1338;48.176;11.792;2022-09-09T01:58:43;3.00;;;2.80;;
2656;SDS011;1338;48.176;11.792;2022-09-09T02:01:23;3.30;;;3.00;;
2656;SDS011;1338;48.176;11.792;2022-09-09T02:04:03;2.97;;;2.77;;
2656;SDS011;1338;48.176;11.792;2022-09-09T02:06:39;3.20;;;2.90;;
2656;SDS011;1338;48.176;11.792;2022-09-09T02:09:18;3.63;;;3.33;;
2656;SDS011;1338;48.176;11.792;2022-09-09T02:11:52;3.50;;;3.20;;
2656;SDS011;1338;48.176;11.792;2022-09-09T02:14:36;2.93;;;2.73;;
2656;SDS011;1338;48.176;11.792;2022-09-09T02:17:09;3.53;;;3.03;;
2656;SDS011;1338;48.176;11.792;2022-09-09T02:19:59;3.63;;;3.30;;
2656;SDS011;1338;48.176;11.792;2022-09-09T02:22:40;3.20;;;3.00;;
2656;SDS011;1338;48.176;11.792;2022-09-09T02:25:14;3.00;;;2.70;;
2656;SDS011;1338;48.176;11.792;2022-09-09T02:27:46;3.50;;;2.90;;
2656;SDS011;1338;48.176;11.792;2022-09-09T02:30:19;3.40;;;3.10;;
2656;SDS011;1338;48.176;11.792;2022-09-09T02:32:54;3.50;;;3.20;;
2656;SDS011;1338;48.176;11.792;2022-09-09T02:35:39;3.60;;;3.40;;
2656;SDS011;1338;48.176;11.792;2022-09-09T02:38:09;3.17;;;2.97;;
2656;SDS011;1338;48.176;11.792;2022-09-09T02:40:45;2.83;;;2.63;;
2656;SDS011;1338;48.176;11.792;2022-09-09T02:43:13;3.47;;;3.27;;
2656;SDS011;1338;48.176;11.792;2022-09-09T02:45:50;3.17;;;2.93;;
2656;SDS011;1338;48.176;11.792;2022-09-09T02:48:24;5.30;;;3.17;;
2656;SDS011;1338;48.176;11.792;2022-09-09T02:50:59;3.03;;;2.83;;
2656;SDS011;1338;48.176;11.792;2022-09-09T02:53:38;3.13;;;2.80;;
2656;SDS011;1338;48.176;11.792;2022-09-09T02:56:14;3.60;;;3.10;;
2656;SDS011;1338;48.176;11.792;2022-09-09T02:58:46;2.90;;;2.70;;
2656;SDS011;1338;48.176;11.792;2022-09-09T03:01:17;3.33;;;3.03;;
2656;SDS011;1338;48.176;11.792;2022-09-09T03:03:45;3.13;;;2.93;;
2656;SDS011;1338;48.176;11.792;2022-09-09T03:06:15;2.60;;;2.40;;
2656;SDS011;1338;48.176;11.792;2022-09-09T03:08:49;3.30;;;3.00;;
2656;SDS011;1338;48.176;11.792;2022-09-09T03:11:22;2.53;;;2.33;;
2656;SDS011;1338;48.176;11.792;2022-09-09T03:13:51;3.13;;;2.83;;
2656;SDS011;1338;48.176;11.792;2022-09-09T03:16:21;3.23;;;3.03;;
2656;SDS011;1338;48.176;11.792;2022-09-09T03:18:51;2.87;;;2.57;;
2656;SDS011;1338;48.176;11.792;2022-09-09T03:21:19;2.90;;;2.70;;
2656;SDS011;1338;48.176;11.792;2022-09-09T03:23:48;4.10;;;2.90;;
2656;SDS011;1338;48.176;11.792;2022-09-09T03:26:17;2.83;;;2.60;;
2656;SDS011;1338;48.176;11.792;2022-09-09T03:28:46;2.73;;;2.53;;
2656;SDS011;1338;48.176;11.792;2022-09-09T03:31:17;3.33;;;3.03;;
2656;SDS011;1338;48.176;11.792;2022-09-09T03:33:47;3.07;;;2.87;;
2656;SDS011;1338;48.176;11.792;2022-09-09T03:36:17;4.00;;;2.70;;
2656;SDS011;1338;48.176;11.792;2022-09-09T03:38:45;2.80;;;2.60;;
2656;SDS011;1338;48.176;11.792;2022-09-09T03:41:14;3.40;;;2.80;;
2656;SDS011;1338;48.176;11.792;2022-09-09T03:43:42;3.10;;;2.80;;
2656;SDS011;1338;48.176;11.792;2022-09-09T03:46:10;2.57;;;2.37;;
2656;SDS011;1338;48.176;11.792;2022-09-09T03:48:39;2.90;;;2.70;;
2656;SDS011;1338;48.176;11.792;2022-09-09T03:51:08;3.00;;;2.80;;
2656;SDS011;1338;48.176;11.792;2022-09-09T03:53:36;3.10;;;2.90;;
2656;SDS011;1338;48.176;11.792;2022-09-09T03:56:06;3.00;;;2.70;;
2656;SDS011;1338;48.176;11.792;2022-09-09T03:58:36;3.30;;;3.10;;
2656;SDS011;1338;48.176;11.792;2022-09-09T04:01:08;2.97;;;2.77;;
2656;SDS011;1338;48.176;11.792;2022-09-09T04:03:41;3.07;;;2.87;;
2656;SDS011;1338;48.176;11.792;2022-09-09T04:06:11;3.70;;;3.00;;
2656;SDS011;1338;48.176;11.792;2022-09-09T04:08:44;3.40;;;3.20;;
2656;SDS011;1338;48.176;11.792;2022-09-09T04:11:14;6.40;;;3.10;;
2656;SDS011;1338;48.176;11.792;2022-09-09T04:13:44;3.20;;;2.90;;
2656;SDS011;1338;48.176;11.792;2022-09-09T04:16:12;4.40;;;3.37;;
2656;SDS011;1338;48.176;11.792;2022-09-09T04:18:42;3.40;;;3.10;;
2656;SDS011;1338;48.176;11.792;2022-09-09T04:21:12;5.63;;;3.00;;
2656;SDS011;1338;48.176;11.792;2022-09-09T04:23:42;3.10;;;2.80;;
2656;SDS011;1338;48.176;11.792;2022-09-09T04:26:10;3.10;;;2.90;;
2656;SDS011;1338;48.176;11.792;2022-09-09T04:28:39;5.00;;;2.90;;
2656;SDS011;1338;48.176;11.792;2022-09-09T04:31:15;3.40;;;3.10;;
2656;SDS011;1338;48.176;11.792;2022-09-09T04:33:45;3.30;;;3.00;;
2656;SDS011;1338;48.176;11.792;2022-09-09T04:36:16;3.40;;;2.83;;
2656;SDS011;1338;48.176;11.792;2022-09-09T04:38:51;3.70;;;3.40;;
2656;SDS011;1338;48.176;11.792;2022-09-09T04:41:19;3.30;;;3.00;;
2656;SDS011;1338;48.176;11.792;2022-09-09T04:43:50;5.73;;;3.27;;
2656;SDS011;1338;48.176;11.792;2022-09-09T04:46:20;2.90;;;2.67;;
2656;SDS011;1338;48.176;11.792;2022-09-09T04:48:49;3.00;;;2.80;;
2656;SDS011;1338;48.176;11.792;2022-09-09T04:51:19;3.67;;;3.10;;
2656;SDS011;1338;48.176;11.792;2022-09-09T04:53:48;2.97;;;2.77;;
2656;SDS011;1338;48.176;11.792;2022-09-09T04:56:18;2.97;;;2.73;;
2656;SDS011;1338;48.176;11.792;2022-09-09T04:58:56;3.10;;;2.90;;
2656;SDS011;1338;48.176;11.792;2022-09-09T05:01:35;3.27;;;3.03;;
2656;SDS011;1338;48.176;11.792;2022-09-09T05:04:04;3.67;;;3.30;;
2656;SDS011;1338;48.176;11.792;2022-09-09T05:06:34;4.37;;;3.20;;
2656;SDS011;1338;48.176;11.792;2022-09-09T05:09:04;3.40;;;2.93;;
2656;SDS011;1338;48.176;11.792;2022-09-09T05:11:32;5.00;;;3.20;;
2656;SDS011;1338;48.176;11.792;2022-09-09T05:14:21;3.20;;;2.90;;
2656;SDS011;1338;48.176;11.792;2022-09-09T05:16:50;3.07;;;2.83;;
2656;SDS011;1338;48.176;11.792;2022-09-09T05:19:20;3.47;;;2.90;;
2656;SDS011;1338;48.176;11.792;2022-09-09T05:21:52;6.57;;;2.87;;
2656;SDS011;1338;48.176;11.792;2022-09-09T05:24:26;3.53;;;3.33;;
2656;SDS011;1338;48.176;11.792;2022-09-09T05:26:56;3.70;;;3.00;;
2656;SDS011;1338;48.176;11.792;2022-09-09T05:29:26;2.83;;;2.60;;
2656;SDS011;1338;48.176;11.792;2022-09-09T05:31:55;3.90;;;2.73;;
2656;SDS011;1338;48.176;11.792;2022-09-09T05:34:23;3.70;;;2.70;;
2656;SDS011;1338;48.176;11.792;2022-09-09T05:36:53;3.37;;;3.07;;
2656;SDS011;1338;48.176;11.792;2022-09-09T05:39:23;3.40;;;3.10;;
2656;SDS011;1338;48.176;11.792;2022-09-09T05:41:51;2.90;;;2.70;;
2656;SDS011;1338;48.176;11.792;2022-09-09T05:44:19;3.80;;;3.00;;
2656;SDS011;1338;48.176;11.792;2022-09-09T05:46:49;3.10;;;2.80;;
2656;SDS011;1338;48.176;11.792;2022-09-09T05:49:18;3.43;;;2.90;;
2656;SDS011;1338;48.176;11.792;2022-09-09T05:51:47;3.03;;;2.70;;
2656;SDS011;1338;48.176;11.792;2022-09-09T05:54:19;4.17;;;2.83;;
2656;SDS011;1338;48.176;11.792;2022-09-09T05:56:50;3.97;;;3.10;;
2656;SDS011;1338;48.176;11.792;2022-09-09T05:59:20;3.33;;;3.03;;
2656;SDS011;1338;48.176;11.792;2022-09-09T06:01:52;3.03;;;2.73;;
2656;SDS011;1338;48.176;11.792;2022-09-09T06:04:29;2.93;;;2.73;;
2656;SDS011;1338;48.176;11.792;2022-09-09T06:06:59;3.10;;;2.73;;
2656;SDS011;1338;48.176;11.792;2022-09-09T06:09:29;3.53;;;3.10;;
2656;SDS011;1338;48.176;11.792;2022-09-09T06:11:58;7.20;;;3.90;;
2656;SDS011;1338;48.176;11.792;2022-09-09T06:14:26;7.63;;;3.33;;
2656;SDS011;1338;48.176;11.792;2022-09-09T06:16:57;6.30;;;3.53;;
2656;SDS011;1338;48.176;11.792;2022-09-09T06:19:28;4.00;;;3.20;;
2656;SDS011;1338;48.176;11.792;2022-09-09T06:21:58;4.30;;;3.10;;
2656;SDS011;1338;48.176;11.792;2022-09-09T06:24:29;13.77;;;4.27;;
2656;SDS011;1338;48.176;11.792;2022-09-09T06:27:00;8.77;;;4.20;;
2656;SDS011;1338;48.176;11.792;2022-09-09T06:29:32;18.10;;;4.53;;
2656;SDS011;1338;48.176;11.792;2022-09-09T06:32:01;13.07;;;4.73;;
2656;SDS011;1338;48.176;11.792;2022-09-09T06:34:30;5.93;;;3.07;;
2656;SDS011;1338;48.176;11.792;2022-09-09T06:36:59;7.50;;;3.30;;
2656;SDS011;1338;48.176;11.792;2022-09-09T06:39:35;31.43;;;7.33;;
2656;SDS011;1338;48.176;11.792;2022-09-09T06:42:05;18.47;;;4.83;;
2656;SDS011;1338;48.176;11.792;2022-09-09T06:44:59;8.83;;;3.50;;
2656;SDS011;1338;48.176;11.792;2022-09-09T06:47:34;6.27;;;2.70;;
2656;SDS011;1338;48.176;11.792;2022-09-09T06:50:03;8.43;;;3.83;;
2656;SDS011;1338;48.176;11.792;2022-09-09T06:52:34;18.37;;;4.63;;
2656;SDS011;1338;48.176;11.792;2022-09-09T06:55:05;20.87;;;5.37;;
2656;SDS011;1338;48.176;11.792;2022-09-09T06:57:35;12.40;;;4.27;;
2656;SDS011;1338;48.176;11.792;2022-09-09T07:00:17;17.83;;;5.20;;
2656;SDS011;1338;48.176;11.792;2022-09-09T07:02:45;10.33;;;3.50;;
2656;SDS011;1338;48.176;11.792;2022-09-09T07:05:14;3.30;;;3.00;;
2656;SDS011;1338;48.176;11.792;2022-09-09T07:07:45;6.37;;;3.20;;
2656;SDS011;1338;48.176;11.792;2022-09-09T07:10:17;3.57;;;2.70;;
2656;SDS011;1338;48.176;11.792;2022-09-09T07:12:45;3.47;;;2.70;;
2656;SDS011;1338;48.176;11.792;2022-09-09T07:15:20;2.90;;;2.40;;
2656;SDS011;1338;48.176;11.792;2022-09-09T07:17:49;2.80;;;2.47;;
2656;SDS011;1338;48.176;11.792;2022-09-09T07:20:18;2.53;;;2.33;;
2656;SDS011;1338;48.176;11.792;2022-09-09T07:22:46;2.93;;;2.50;;
2656;SDS011;1338;48.176;11.792;2022-09-09T07:25:14;2.70;;;2.50;;
2656;SDS011;1338;48.176;11.792;2022-09-09T07:27:47;3.10;;;2.67;;
2656;SDS011;1338;48.176;11.792;2022-09-09T07:30:30;6.70;;;2.80;;
2656;SDS011;1338;48.176;11.792;2022-09-09T07:33:06;4.97;;;2.90;;
2656;SDS011;1338;48.176;11.792;2022-09-09T07:35:45;4.53;;;2.90;;
2656;SDS011;1338;48.176;11.792;2022-09-09T07:38:24;3.23;;;2.93;;
2656;SDS011;1338;48.176;11.792;2022-09-09T07:44:03;2.90;;;2.70;;
2656;SDS011;1338;48.176;11.792;2022-09-09T07:46:34;4.90;;;2.60;;
2656;SDS011;1338;48.176;11.792;2022-09-09T07:49:03;3.07;;;2.60;;
2656;SDS011;1338;48.176;11.792;2022-09-09T07:51:33;3.30;;;3.00;;
2656;SDS011;1338;48.176;11.792;2022-09-09T07:54:03;3.60;;;3.00;;
2656;SDS011;1338;48.176;11.792;2022-09-09T07:56:34;4.57;;;3.53;;
2656;SDS011;1338;48.176;11.792;2022-09-09T07:59:07;3.73;;;2.80;;
2656;SDS011;1338;48.176;11.792;2022-09-09T08:01:38;3.43;;;2.73;;
2656;SDS011;1338;48.176;11.792;2022-09-09T08:04:10;3.50;;;3.20;;
2656;SDS011;1338;48.176;11.792;2022-09-09T08:06:42;4.47;;;2.67;;
2656;SDS011;1338;48.176;11.792;2022-09-09T08:09:13;6.87;;;3.00;;
2656;SDS011;1338;48.176;11.792;2022-09-09T08:11:46;5.13;;;2.87;;
2656;SDS011;1338;48.176;11.792;2022-09-09T08:14:16;3.00;;;2.80;;
2656;SDS011;1338;48.176;11.792;2022-09-09T08:16:45;3.37;;;3.17;;
2656;SDS011;1338;48.176;11.792;2022-09-09T08:19:19;3.37;;;3.07;;
2656;SDS011;1338;48.176;11.792;2022-09-09T08:21:47;3.43;;;3.13;;
2656;SDS011;1338;48.176;11.792;2022-09-09T08:24:15;3.33;;;3.03;;
2656;SDS011;1338;48.176;11.792;2022-09-09T08:26:49;3.10;;;2.90;;
2656;SDS011;1338;48.176;11.792;2022-09-09T08:29:21;3.00;;;2.80;;
2656;SDS011;1338;48.176;11.792;2022-09-09T08:31:52;2.83;;;2.63;;
2656;SDS011;1338;48.176;11.792;2022-09-09T08:34:25;4.57;;;3.20;;
2656;SDS011;1338;48.176;11.792;2022-09-09T08:36:56;4.07;;;3.10;;
2656;SDS011;1338;48.176;11.792;2022-09-09T08:39:33;4.37;;;3.37;;
2656;SDS011;1338;48.176;11.792;2022-09-09T08:42:09;3.63;;;3.27;;
2656;SDS011;1338;48.176;11.792;2022-09-09T08:45:00;2.90;;;2.70;;
2656;SDS011;1338;48.176;11.792;2022-09-09T08:47:41;3.17;;;2.83;;
2656;SDS011;1338;48.176;11.792;2022-09-09T08:50:19;2.40;;;2.20;;
2656;SDS011;1338;48.176;11.792;2022-09-09T08:52:59;2.73;;;2.53;;
2656;SDS011;1338;48.176;11.792;2022-09-09T08:55:35;2.57;;;2.23;;
2656;SDS011;1338;48.176;11.792;2022-09-09T08:58:11;2.60;;;2.40;;
2656;SDS011;1338;48.176;11.792;2022-09-09T09:00:46;2.70;;;2.30;;
2656;SDS011;1338;48.176;11.792;2022-09-09T09:03:31;2.47;;;2.20;;
2656;SDS011;1338;48.176;11.792;2022-09-09T09:06:11;4.47;;;2.53;;
2656;SDS011;1338;48.176;11.792;2022-09-09T09:08:51;2.90;;;2.60;;
2656;SDS011;1338;48.176;11.792;2022-09-09T09:11:33;2.60;;;2.40;;
2656;SDS011;1338;48.176;11.792;2022-09-09T09:14:08;2.33;;;2.13;;
2656;SDS011;1338;48.176;11.792;2022-09-09T09:16:41;4.30;;;2.47;;
2656;SDS011;1338;48.176;11.792;2022-09-09T09:19:16;5.10;;;2.20;;
2656;SDS011;1338;48.176;11.792;2022-09-09T09:21:48;2.83;;;2.23;;
2656;SDS011;1338;48.176;11.792;2022-09-09T09:24:19;3.60;;;2.47;;
2656;SDS011;1338;48.176;11.792;2022-09-09T09:26:52;3.77;;;2.67;;
2656;SDS011;1338;48.176;11.792;2022-09-09T09:29:23;4.63;;;2.57;;
2656;SDS011;1338;48.176;11.792;2022-09-09T09:31:55;4.17;;;2.50;;
2656;SDS011;1338;48.176;11.792;2022-09-09T09:34:27;2.60;;;2.13;;
2656;SDS011;1338;48.176;11.792;2022-09-09T09:36:56;3.80;;;2.30;;
2656;SDS011;1338;48.176;11.792;2022-09-09T09:39:31;2.60;;;2.40;;
2656;SDS011;1338;48.176;11.792;2022-09-09T09:42:22;2.80;;;2.00;;
2656;SDS011;1338;48.176;11.792;2022-09-09T09:44:56;3.23;;;2.50;;
2656;SDS011;1338;48.176;11.792;2022-09-09T09:47:35;3.07;;;2.23;;
2656;SDS011;1338;48.176;11.792;2022-09-09T09:50:17;2.17;;;2.07;;
2656;SDS011;1338;48.176;11.792;2022-09-09T09:52:53;2.80;;;2.60;;
2656;SDS011;1338;48.176;11.792;2022-09-09T09:55:24;3.20;;;2.20;;
2656;SDS011;1338;48.176;11.792;2022-09-09T09:57:54;2.47;;;2.20;;
2656;SDS011;1338;48.176;11.792;2022-09-09T10:00:31;2.73;;;2.30;;
2656;SDS011;1338;48.176;11.792;2022-09-09T10:03:13;2.40;;;2.20;;
2656;SDS011;1338;48.176;11.792;2022-09-09T10:05:52;2.73;;;2.37;;
2656;SDS011;1338;48.176;11.792;2022-09-09T10:08:21;3.00;;;2.80;;
2656;SDS011;1338;48.176;11.792;2022-09-09T10:11:03;2.70;;;2.50;;
2656;SDS011;1338;48.176;11.792;2022-09-09T10:13:55;2.63;;;2.40;;
2656;SDS011;1338;48.176;11.792;2022-09-09T10:16:35;2.50;;;2.33;;
2656;SDS011;1338;48.176;11.792;2022-09-09T10:19:15;2.57;;;2.27;;
2656;SDS011;1338;48.176;11.792;2022-09-09T10:21:50;2.20;;;2.10;;
2656;SDS011;1338;48.176;11.792;2022-09-09T10:24:48;2.53;;;2.33;;
2656;SDS011;1338;48.176;11.792;2022-09-09T10:27:30;4.40;;;2.30;;
2656;SDS011;1338;48.176;11.792;2022-09-09T10:30:09;2.50;;;2.30;;
2656;SDS011;1338;48.176;11.792;2022-09-09T10:32:48;6.40;;;2.70;;
2656;SDS011;1338;48.176;11.792;2022-09-09T10:35:26;3.73;;;2.60;;
2656;SDS011;1338;48.176;11.792;2022-09-09T10:38:11;2.33;;;2.13;;
2656;SDS011;1338;48.176;11.792;2022-09-09T10:40:45;2.60;;;2.40;;
2656;SDS011;1338;48.176;11.792;2022-09-09T10:46:49;2.63;;;2.40;;
2656;SDS011;1338;48.176;11.792;2022-09-09T10:49:48;3.67;;;2.50;;
2656;SDS011;1338;48.176;11.792;2022-09-09T10:52:28;3.70;;;2.20;;
2656;SDS011;1338;48.176;11.792;2022-09-09T10:55:08;2.60;;;2.37;;
2656;SDS011;1338;48.176;11.792;2022-09-09T10:57:43;2.27;;;2.07;;
2656;SDS011;1338;48.176;11.792;2022-09-09T11:00:15;2.53;;;2.33;;
2656;SDS011;1338;48.176;11.792;2022-09-09T11:02:47;2.67;;;2.17;;
2656;SDS011;1338;48.176;11.792;2022-09-09T11:05:20;2.30;;;2.10;;
2656;SDS011;1338;48.176;11.792;2022-09-09T11:07:55;2.20;;;2.10;;
2656;SDS011;1338;48.176;11.792;2022-09-09T11:10:28;2.10;;;2.00;;
2656;SDS011;1338;48.176;11.792;2022-09-09T11:13:04;2.10;;;1.90;;
2656;SDS011;1338;48.176;11.792;2022-09-09T11:15:39;2.10;;;1.90;;
2656;SDS011;1338;48.176;11.792;2022-09-09T11:18:11;1.90;;;1.80;;
2656;SDS011;1338;48.176;11.792;2022-09-09T11:20:45;2.30;;;2.10;;
2656;SDS011;1338;48.176;11.792;2022-09-09T11:23:18;2.40;;;2.20;;
2656;SDS011;1338;48.176;11.792;2022-09-09T11:25:52;2.30;;;2.10;;
2656;SDS011;1338;48.176;11.792;2022-09-09T11:28:28;2.00;;;1.87;;
2656;SDS011;1338;48.176;11.792;2022-09-09T11:31:11;2.60;;;1.77;;
2656;SDS011;1338;48.176;11.792;2022-09-09T11:33:56;1.83;;;1.73;;
2656;SDS011;1338;48.176;11.792;2022-09-09T11:36:49;1.97;;;1.77;;
2656;SDS011;1338;48.176;11.792;2022-09-09T11:42:36;2.00;;;1.80;;
2656;SDS011;1338;48.176;11.792;2022-09-09T11:45:08;1.70;;;1.60;;
2656;SDS011;1338;48.176;11.792;2022-09-09T11:47:39;1.87;;;1.60;;
2656;SDS011;1338;48.176;11.792;2022-09-09T11:50:08;2.03;;;1.60;;
2656;SDS011;1338;48.176;11.792;2022-09-09T11:52:40;2.07;;;1.90;;
2656;SDS011;1338;48.176;11.792;2022-09-09T11:55:23;2.00;;;1.80;;
2656;SDS011;1338;48.176;11.792;2022-09-09T11:57:57;1.93;;;1.73;;
2656;SDS011;1338;48.176;11.792;2022-09-09T12:00:33;1.80;;;1.70;;
2656;SDS011;1338;48.176;11.792;2022-09-09T12:03:03;2.03;;;1.83;;
2656;SDS011;1338;48.176;11.792;2022-09-09T12:05:35;1.67;;;1.57;;
2656;SDS011;1338;48.176;11.792;2022-09-09T12:08:07;1.60;;;1.50;;
2656;SDS011;1338;48.176;11.792;2022-09-09T12:10:38;2.13;;;1.60;;
2656;SDS011;1338;48.176;11.792;2022-09-09T12:13:08;2.60;;;1.73;;
2656;SDS011;1338;48.176;11.792;2022-09-09T12:15:46;1.80;;;1.70;;
2656;SDS011;1338;48.176;11.792;2022-09-09T12:18:21;1.70;;;1.60;;
2656;SDS011;1338;48.176;11.792;2022-09-09T12:20:53;3.80;;;1.70;;
2656;SDS011;1338;48.176;11.792;2022-09-09T12:23:35;1.57;;;1.47;;
2656;SDS011;1338;48.176;11.792;2022-09-09T12:26:23;2.70;;;1.53;;
2656;SDS011;1338;48.176;11.792;2022-09-09T12:31:51;2.10;;;1.60;;
2656;SDS011;1338;48.176;11.792;2022-09-09T12:34:28;1.87;;;1.57;;
2656;SDS011;1338;48.176;11.792;2022-09-09T12:37:03;1.70;;;1.60;;
2656;SDS011;1338;48.176;11.792;2022-09-09T12:39:37;2.07;;;1.73;;
2656;SDS011;1338;48.176;11.792;2022-09-09T12:42:18;1.57;;;1.47;;
2656;SDS011;1338;48.176;11.792;2022-09-09T12:44:51;2.00;;;1.90;;
2656;SDS011;1338;48.176;11.792;2022-09-09T12:47:20;3.60;;;1.73;;
2656;SDS011;1338;48.176;11.792;2022-09-09T12:49:56;3.00;;;1.60;;
2656;SDS011;1338;48.176;11.792;2022-09-09T12:52:26;1.70;;;1.60;;
2656;SDS011;1338;48.176;11.792;2022-09-09T12:55:00;2.00;;;1.90;;
2656;SDS011;1338;48.176;11.792;2022-09-09T12:57:31;1.70;;;1.60;;
2656;SDS011;1338;48.176;11.792;2022-09-09T13:00:14;2.13;;;1.93;;
2656;SDS011;1338;48.176;11.792;2022-09-09T13:02:47;5.73;;;2.00;;
2656;SDS011;1338;48.176;11.792;2022-09-09T13:05:19;1.83;;;1.73;;
2656;SDS011;1338;48.176;11.792;2022-09-09T13:07:50;1.97;;;1.77;;
2656;SDS011;1338;48.176;11.792;2022-09-09T13:10:24;2.10;;;1.90;;
2656;SDS011;1338;48.176;11.792;2022-09-09T13:13:12;1.50;;;1.40;;
2656;SDS011;1338;48.176;11.792;2022-09-09T13:15:48;1.83;;;1.70;;
2656;SDS011;1338;48.176;11.792;2022-09-09T13:18:18;1.90;;;1.70;;
2656;SDS011;1338;48.176;11.792;2022-09-09T13:20:50;1.60;;;1.50;;
2656;SDS011;1338;48.176;11.792;2022-09-09T13:23:19;2.43;;;1.70;;
2656;SDS011;1338;48.176;11.792;2022-09-09T13:25:56;2.33;;;1.50;;
2656;SDS011;1338;48.176;11.792;2022-09-09T13:28:26;1.90;;;1.80;;
2656;SDS011;1338;48.176;11.792;2022-09-09T13:30:59;1.90;;;1.70;;
2656;SDS011;1338;48.176;11.792;2022-09-09T13:33:33;1.90;;;1.80;;
2656;SDS011;1338;48.176;11.792;2022-09-09T13:36:04;1.70;;;1.60;;
2656;SDS011;1338;48.176;11.792;2022-09-09T13:38:35;1.70;;;1.60;;
2656;SDS011;1338;48.176;11.792;2022-09-09T13:41:07;2.80;;;1.63;;
2656;SDS011;1338;48.176;11.792;2022-09-09T13:43:38;2.10;;;1.87;;
2656;SDS011;1338;48.176;11.792;2022-09-09T13:46:23;3.07;;;1.80;;
2656;SDS011;1338;48.176;11.792;2022-09-09T13:48:54;2.40;;;2.13;;
2656;SDS011;1338;48.176;11.792;2022-09-09T13:51:26;1.60;;;1.50;;
2656;SDS011;1338;48.176;11.792;2022-09-09T13:54:04;1.80;;;1.70;;
2656;SDS011;1338;48.176;11.792;2022-09-09T13:56:34;1.90;;;1.80;;
2656;SDS011;1338;48.176;11.792;2022-09-09T13:59:04;1.97;;;1.77;;
2656;SDS011;1338;48.176;11.792;2022-09-09T14:01:34;2.03;;;1.87;;
2656;SDS011;1338;48.176;11.792;2022-09-09T14:04:03;1.63;;;1.53;;
2656;SDS011;1338;48.176;11.792;2022-09-09T14:06:32;1.80;;;1.70;;
2656;SDS011;1338;48.176;11.792;2022-09-09T14:09:03;1.90;;;1.80;;
2656;SDS011;1338;48.176;11.792;2022-09-09T14:11:33;1.50;;;1.40;;
2656;SDS011;1338;48.176;11.792;2022-09-09T14:14:02;1.70;;;1.60;;
2656;SDS011;1338;48.176;11.792;2022-09-09T14:16:31;1.80;;;1.70;;
2656;SDS011;1338;48.176;11.792;2022-09-09T14:18:59;1.80;;;1.67;;
2656;SDS011;1338;48.176;11.792;2022-09-09T14:21:27;1.77;;;1.67;;
2656;SDS011;1338;48.176;11.792;2022-09-09T14:23:55;1.50;;;1.40;;
2656;SDS011;1338;48.176;11.792;2022-09-09T14:26:25;1.90;;;1.77;;
2656;SDS011;1338;48.176;11.792;2022-09-09T14:28:56;1.60;;;1.50;;
2656;SDS011;1338;48.176;11.792;2022-09-09T14:31:25;1.67;;;1.53;;
2656;SDS011;1338;48.176;11.792;2022-09-09T14:33:53;1.53;;;1.43;;
2656;SDS011;1338;48.176;11.792;2022-09-09T14:36:21;1.80;;;1.70;;
2656;SDS011;1338;48.176;11.792;2022-09-09T14:38:50;1.70;;;1.60;;
2656;SDS011;1338;48.176;11.792;2022-09-09T14:41:19;2.13;;;1.60;;
2656;SDS011;1338;48.176;11.792;2022-09-09T14:43:48;3.20;;;1.80;;
2656;SDS011;1338;48.176;11.792;2022-09-09T14:46:19;1.67;;;1.57;;
2656;SDS011;1338;48.176;11.792;2022-09-09T14:48:48;1.90;;;1.70;;
2656;SDS011;1338;48.176;11.792;2022-09-09T14:51:16;2.07;;;1.70;;
2656;SDS011;1338;48.176;11.792;2022-09-09T14:53:46;1.90;;;1.80;;
2656;SDS011;1338;48.176;11.792;2022-09-09T14:56:15;2.10;;;1.90;;
2656;SDS011;1338;48.176;11.792;2022-09-09T14:58:44;2.50;;;1.70;;
2656;SDS011;1338;48.176;11.792;2022-09-09T15:01:14;1.97;;;1.77;;
2656;SDS011;1338;48.176;11.792;2022-09-09T15:03:49;3.97;;;1.70;;
2656;SDS011;1338;48.176;11.792;2022-09-09T15:06:19;3.10;;;1.93;;
2656;SDS011;1338;48.176;11.792;2022-09-09T15:08:49;3.10;;;2.10;;
2656;SDS011;1338;48.176;11.792;2022-09-09T15:11:19;1.70;;;1.60;;
2656;SDS011;1338;48.176;11.792;2022-09-09T15:13:50;1.80;;;1.70;;
2656;SDS011;1338;48.176;11.792;2022-09-09T15:16:20;2.00;;;1.80;;
2656;SDS011;1338;48.176;11.792;2022-09-09T15:18:52;2.27;;;2.07;;
2656;SDS011;1338;48.176;11.792;2022-09-09T15:21:22;2.50;;;1.70;;
2656;SDS011;1338;48.176;11.792;2022-09-09T15:23:52;1.80;;;1.70;;
2656;SDS011;1338;48.176;11.792;2022-09-09T15:26:20;2.07;;;1.97;;
2656;SDS011;1338;48.176;11.792;2022-09-09T15:28:49;1.90;;;1.80;;
2656;SDS011;1338;48.176;11.792;2022-09-09T15:31:18;2.33;;;1.80;;
2656;SDS011;1338;48.176;11.792;2022-09-09T15:33:47;2.23;;;1.97;;
2656;SDS011;1338;48.176;11.792;2022-09-09T15:36:18;2.03;;;1.83;;
2656;SDS011;1338;48.176;11.792;2022-09-09T15:38:48;1.70;;;1.60;;
2656;SDS011;1338;48.176;11.792;2022-09-09T15:41:16;3.53;;;2.00;;
2656;SDS011;1338;48.176;11.792;2022-09-09T15:43:46;2.10;;;1.90;;
2656;SDS011;1338;48.176;11.792;2022-09-09T15:49:04;2.33;;;2.13;;
2656;SDS011;1338;48.176;11.792;2022-09-09T15:51:37;1.90;;;1.70;;
2656;SDS011;1338;48.176;11.792;2022-09-09T15:54:09;2.03;;;1.83;;
2656;SDS011;1338;48.176;11.792;2022-09-09T15:56:38;2.47;;;2.07;;
2656;SDS011;1338;48.176;11.792;2022-09-09T15:59:07;1.93;;;1.83;;